createdAt,value
2023-04-16T00:02:03.160Z,176.72
2023-04-16T00:06:02.741Z,224.79
2023-04-16T00:10:02.722Z,238.90
2023-04-16T00:14:03.364Z,211.67
2023-04-16T00:18:03.362Z,199.64
2023-04-16T00:22:02.702Z,184.25
2023-04-16T00:26:02.627Z,216.66
2023-04-16T00:30:02.651Z,229.62
2023-04-16T00:34:02.786Z,148.03
2023-04-16T00:38:02.737Z,102.54
2023-04-16T00:42:02.607Z,163.33
2023-04-16T00:46:02.560Z,121.38
2023-04-16T00:50:02.714Z,120.67
2023-04-16T00:54:02.709Z,152.31
2023-04-16T01:11:01.806Z,25.00
2023-04-16T02:02:51.227Z,25.00
2023-04-16T02:06:41.598Z,25.00
2023-04-16T02:10:40.706Z,24.46
2023-04-16T02:14:41.084Z,52.67
2023-04-16T02:18:41.092Z,30.78
2023-04-16T02:22:41.528Z,23.85
2023-04-16T02:26:40.772Z,64.20
2023-04-16T02:30:41.059Z,60.69
2023-04-16T02:34:41.122Z,151.86
2023-04-16T02:38:40.693Z,207.72
2023-04-16T02:42:41.083Z,207.64
2023-04-16T02:46:40.566Z,139.30
2023-04-16T02:50:40.570Z,78.02
2023-04-16T02:58:29.787Z,25.00
2023-04-16T03:02:29.564Z,63.37
2023-04-16T03:06:29.618Z,36.73
2023-04-16T03:10:29.872Z,48.61
2023-04-16T03:14:29.803Z,25.31
2023-04-16T03:18:29.891Z,51.72
2023-04-16T03:22:29.521Z,47.25
2023-04-16T03:26:29.815Z,87.08
2023-04-16T03:30:30.291Z,63.33
2023-04-16T03:34:30.058Z,69.86
2023-04-16T03:38:30.289Z,22.05
2023-04-16T03:42:29.995Z,45.66
2023-04-16T03:46:29.973Z,68.09
2023-04-16T03:55:01.072Z,25.00
2023-04-16T04:07:41.932Z,25.00
2023-04-16T04:11:39.977Z,25.00
2023-04-16T04:15:29.654Z,25.00
2023-04-16T04:19:29.608Z,25.00
2023-04-16T04:23:29.535Z,134.82
2023-04-16T04:27:29.596Z,151.71
2023-04-16T04:31:29.498Z,138.14
2023-04-16T04:35:29.503Z,43.86
2023-04-16T04:39:29.512Z,94.20
2023-04-16T04:43:29.474Z,167.58
2023-04-16T04:47:29.471Z,237.11
2023-04-16T04:51:29.446Z,250.85
2023-04-16T04:55:29.528Z,167.00
2023-04-16T04:59:30.015Z,180.97
2023-04-16T05:03:29.702Z,106.05
2023-04-16T05:07:30.020Z,116.24
2023-04-16T05:11:29.862Z,25.24
2023-04-16T05:15:30.000Z,28.22
2023-04-16T05:19:30.008Z,22.31
2023-04-16T05:23:29.879Z,91.93
2023-04-16T05:27:30.001Z,175.34
2023-04-16T05:31:30.100Z,153.45
2023-04-16T05:35:30.578Z,196.38
2023-04-16T05:39:30.504Z,250.00
2023-04-16T05:43:30.075Z,242.25
2023-04-16T05:47:30.535Z,207.72
2023-04-16T05:51:30.130Z,203.49
2023-04-16T05:55:30.496Z,228.34
2023-04-16T05:59:30.456Z,224.84
2023-04-16T06:03:30.343Z,199.99
2023-04-16T06:07:30.490Z,213.23
2023-04-16T06:11:30.263Z,232.16
2023-04-16T06:15:30.168Z,219.33
2023-04-16T06:19:30.122Z,209.94
2023-04-16T06:23:30.193Z,222.85
2023-04-16T06:27:30.648Z,163.03
2023-04-16T06:31:30.019Z,82.42
2023-04-16T06:35:30.057Z,68.22
2023-04-16T06:39:30.032Z,119.95
2023-04-16T06:43:29.883Z,57.26
2023-04-16T06:47:30.046Z,58.80
2023-04-16T06:51:29.850Z,112.75
2023-04-16T06:55:30.079Z,211.44
2023-04-16T06:59:30.066Z,167.33
2023-04-16T07:03:30.639Z,157.16
2023-04-16T07:07:30.519Z,128.15
2023-04-16T07:11:31.015Z,153.82
2023-04-16T07:15:31.050Z,174.05
2023-04-16T07:19:31.036Z,139.81
2023-04-16T07:23:31.545Z,110.22
2023-04-16T07:27:31.267Z,115.39
2023-04-16T07:31:31.564Z,167.42
2023-04-16T07:35:31.476Z,103.39
2023-04-16T07:39:31.602Z,33.48
2023-04-16T07:43:31.999Z,0.00
2023-04-16T07:47:31.746Z,30.06
2023-04-16T07:51:32.051Z,47.15
2023-04-16T07:55:32.005Z,104.04
2023-04-16T07:59:32.003Z,116.91
2023-04-16T08:03:32.195Z,87.77
2023-04-16T08:07:34.381Z,63.09
2023-04-16T08:11:32.006Z,98.23
2023-04-16T08:15:31.987Z,114.89
2023-04-16T08:19:31.966Z,75.04
2023-04-16T08:23:32.018Z,81.64
2023-04-16T08:27:31.873Z,91.23
2023-04-16T08:31:32.105Z,62.39
2023-04-16T08:35:31.842Z,109.44
2023-04-16T08:39:31.767Z,86.48
2023-04-16T08:43:31.728Z,73.92
2023-04-16T08:47:31.743Z,49.02
2023-04-16T08:51:32.031Z,50.65
2023-04-16T08:55:31.807Z,78.05
2023-04-16T08:59:32.061Z,54.12
2023-04-16T09:03:34.844Z,94.56
2023-04-16T09:07:32.189Z,128.53
2023-04-16T09:15:51.985Z,25.00
2023-04-16T09:19:51.813Z,105.79
2023-04-16T09:23:51.808Z,194.24
2023-04-16T09:27:52.122Z,119.92
2023-04-16T09:31:51.774Z,150.99
2023-04-16T09:35:51.690Z,104.09
2023-04-16T09:40:02.192Z,89.95
2023-04-16T09:43:51.658Z,68.53
2023-04-16T09:47:51.708Z,72.57
2023-04-16T09:51:51.659Z,123.15
2023-04-16T09:55:51.541Z,50.55
2023-04-16T09:59:51.474Z,48.15
2023-04-16T10:03:51.766Z,57.02
2023-04-16T10:07:51.493Z,17.03
2023-04-16T10:11:51.524Z,71.34
2023-04-16T10:15:51.459Z,141.95
2023-04-16T10:19:51.433Z,124.46
2023-04-16T10:28:11.092Z,25.00
2023-04-16T10:32:11.051Z,48.00
2023-04-16T10:36:11.051Z,117.22
2023-04-16T10:40:21.453Z,25.00
2023-04-16T10:44:11.005Z,51.48
2023-04-16T11:01:10.639Z,25.00
2023-04-16T11:05:10.580Z,0.00
2023-04-16T11:09:10.565Z,4.46
2023-04-16T11:13:10.611Z,16.10
2023-04-16T11:30:09.356Z,25.00
2023-04-16T11:34:09.332Z,0.00
2023-04-16T11:38:09.311Z,121.38
2023-04-16T11:46:29.063Z,25.00
2023-04-16T11:50:39.291Z,114.10
2023-04-16T12:11:48.172Z,25.00
2023-04-16T12:15:58.634Z,31.84
2023-04-16T12:19:48.666Z,10.69
2023-04-16T12:23:48.079Z,84.78
2023-04-16T12:27:49.479Z,0.00
2023-04-16T12:31:48.094Z,40.95
2023-04-16T12:35:48.065Z,101.29
2023-04-16T12:39:48.182Z,123.11
2023-04-16T12:43:48.094Z,28.86
2023-04-16T12:47:47.896Z,90.86
2023-04-16T12:51:47.913Z,47.75
2023-04-16T12:55:48.089Z,165.22
2023-04-16T12:59:47.768Z,0.00
2023-04-16T13:16:47.493Z,25.00
2023-04-16T13:20:47.138Z,25.00
2023-04-16T13:24:47.115Z,0.00
2023-04-16T13:33:07.096Z,25.00
2023-04-16T13:41:26.885Z,25.00
2023-04-16T13:45:27.270Z,37.79
2023-04-16T13:49:27.152Z,0.00
2023-04-16T13:53:26.767Z,88.51
2023-04-16T13:57:27.154Z,135.77
2023-04-16T14:01:26.732Z,105.65
2023-04-16T14:05:27.392Z,145.23
2023-04-16T14:09:26.683Z,31.58
2023-04-16T14:13:26.580Z,28.67
2023-04-16T14:17:26.848Z,132.76
2023-04-16T14:21:26.671Z,180.28
2023-04-16T14:25:26.687Z,135.77
2023-04-16T14:29:26.628Z,46.76
2023-04-16T14:33:26.415Z,25.00
2023-04-16T14:37:26.658Z,59.76
2023-04-16T14:41:26.687Z,27.42
2023-04-16T14:45:26.278Z,83.49
2023-04-16T14:49:26.689Z,63.49
2023-04-16T14:53:26.203Z,79.52
2023-04-16T14:57:26.168Z,62.44
2023-04-16T15:01:26.366Z,38.31
2023-04-16T15:05:26.337Z,103.30
2023-04-16T15:09:26.253Z,120.91
2023-04-16T15:13:26.706Z,102.44
2023-04-16T15:17:26.521Z,93.25
2023-04-16T15:21:26.756Z,171.99
2023-04-16T15:25:26.608Z,103.18
2023-04-16T15:29:26.630Z,179.06
2023-04-16T15:33:27.341Z,114.34
2023-04-16T15:37:26.817Z,130.79
2023-04-16T15:41:26.973Z,171.97
2023-04-16T15:45:27.165Z,126.28
2023-04-16T15:49:27.138Z,101.28
2023-04-16T15:53:27.683Z,179.65
2023-04-16T15:57:27.662Z,154.38
2023-04-16T16:01:27.608Z,124.74
2023-04-16T16:05:27.888Z,172.91
2023-04-16T16:09:27.692Z,209.49
2023-04-16T16:13:27.828Z,199.20
2023-04-16T16:26:07.805Z,25.00
2023-04-16T16:30:07.752Z,25.00
2023-04-16T16:34:09.068Z,26.47
2023-04-16T16:38:08.219Z,0.00
2023-04-16T16:42:08.133Z,25.93
2023-04-16T16:46:07.762Z,28.50
2023-04-16T16:50:07.707Z,22.25
2023-04-16T16:54:08.237Z,74.98
2023-04-16T16:58:07.576Z,155.94
2023-04-16T17:02:07.732Z,203.17
2023-04-16T17:06:07.575Z,217.83
2023-04-16T17:10:07.642Z,197.35
2023-04-16T17:14:07.646Z,228.35
2023-04-16T17:18:07.829Z,236.32
2023-04-16T17:22:07.430Z,236.08
2023-04-16T17:34:01.883Z,25.00
2023-04-16T17:37:51.521Z,25.00
2023-04-16T17:41:51.451Z,0.00
2023-04-16T17:50:21.322Z,25.00
2023-04-16T17:54:21.328Z,25.00
2023-04-16T17:58:11.341Z,25.00
2023-04-16T18:09:46.070Z,25.00
2023-04-16T18:20:23.161Z,25.00
2023-04-16T18:34:20.972Z,25.00
2023-04-16T18:48:08.187Z,25.00
2023-04-16T19:21:40.775Z,25.00
2023-04-16T19:39:14.452Z,25.00
2023-04-16T19:51:42.798Z,25.00
2023-04-16T19:56:27.398Z,25.00
2023-04-16T20:00:27.646Z,25.00
2023-04-16T20:17:01.313Z,25.00
2023-04-16T20:27:37.827Z,25.00
2023-04-16T20:31:27.518Z,25.00
2023-04-16T20:35:27.284Z,18.35
2023-04-16T20:39:27.368Z,11.43
2023-04-16T20:43:27.242Z,25.00
2023-04-16T20:47:27.108Z,26.69
2023-04-16T20:51:27.331Z,68.02
2023-04-16T20:55:27.328Z,35.40
2023-04-16T20:59:27.023Z,77.42
2023-04-16T21:12:07.085Z,25.00
2023-04-16T21:16:07.020Z,17.00
2023-04-16T21:20:07.103Z,28.36
2023-04-16T21:24:07.146Z,25.00
2023-04-16T21:28:07.732Z,34.98
2023-04-16T21:32:07.359Z,26.07
2023-04-16T21:36:07.525Z,66.10
2023-04-16T21:40:08.167Z,68.98
2023-04-16T21:44:08.136Z,76.33
2023-04-16T21:48:07.863Z,65.30
2023-04-16T21:52:08.040Z,29.58
2023-04-16T21:56:08.694Z,38.00
2023-04-16T22:00:08.387Z,27.89
2023-04-16T22:04:08.544Z,25.00
2023-04-16T22:08:23.387Z,38.06
2023-04-16T22:12:09.731Z,46.70
2023-04-16T22:16:10.133Z,87.33
2023-04-16T22:20:08.494Z,57.20
2023-04-16T22:24:08.526Z,87.32
2023-04-16T22:28:08.557Z,61.31
2023-04-16T22:32:08.570Z,47.37
2023-04-16T22:36:08.657Z,50.72
2023-04-16T22:40:08.556Z,108.96
2023-04-16T22:44:08.596Z,115.84
2023-04-16T22:48:08.258Z,130.85
2023-04-16T22:52:08.574Z,150.26
2023-04-16T23:00:50.914Z,25.00
2023-04-16T23:04:51.147Z,25.00
2023-04-16T23:09:01.126Z,27.35
2023-04-16T23:12:50.762Z,0.00
2023-04-16T23:16:51.268Z,31.53
2023-04-16T23:32:28.683Z,25.00
2023-04-16T23:36:28.577Z,25.00
2023-04-16T23:40:28.672Z,20.75
2023-04-16T23:44:28.669Z,24.84
2023-04-16T23:48:28.541Z,37.50
2023-04-16T23:52:28.704Z,24.90
2023-04-16T23:56:28.741Z,82.32
